Ferrin, Illinois
Current Conditions -  °F | °C
As of 4:15 AM on Sunday 23 Nov 2014 (Local Time) from KENL Reporting Station
Clear Clear  
Wind Chill: 50°   Ceiling: Unl
Heat Index: 50°   Visibility: 10mi
Dew Point: 40°   Wind: 9mph
Humidity: 69%   Direction: 140°SE
Pressure: 29.81"   Gusts: NA
Location:  38.5905°N, 89.3709°W
Report Text: KENL 231015Z AUTO 14008KT 10SM CLR 10/05 A2981 RMK AO2 T01010047
Loading
Personal Weather Stations






























Interactive Weather Map New forecast layout! Learn more

10-Day Weather Forecast

Advertisements
Track Severe Weather on mobile